.
WxDataArchive / Data Records for 2011-09-19
2011-09-18 September 2011 2011-09-20

Data Records for Monday, 19 September 2011

Time	Temp	Chill	HIndex	Humid	Dewpt	 Wind 	HiWind	WindDir	Rain 	Barom 
-----	----	-----	------	-----	-----	------	------	-------	-----	----- 
00:00	65.6	65.6	65.6	77	58.2	1	4	90	0.00	30.054 
00:05	65.6	65.6	65.6	78	58.5	0	4	135	0.00	30.054 
00:10	65.6	65.6	65.6	78	58.5	1	6	112	0.00	30.054 
00:15	65.6	65.6	65.6	78	58.5	0	2	112	0.00	30.045 
00:20	65.6	65.6	65.6	79	58.9	0	2	112	0.00	30.045 
00:25	65.5	65.5	65.5	79	58.8	0	3	112	0.00	30.045 
00:30	65.5	65.5	65.5	79	58.8	0	2	90	0.00	30.041 
00:35	65.5	65.5	65.5	79	58.8	0	2	45	0.00	30.041 
00:40	65.5	65.5	65.5	79	58.8	1	4	90	0.00	30.041 
00:45	65.5	65.5	65.5	80	59.2	1	6	90	0.00	30.037 
00:50	65.3	65.3	65.3	80	59.0	1	4	135	0.00	30.037 
00:55	65.3	65.3	65.3	80	59.0	1	3	90	0.00	30.037 
01:00	65.2	65.2	65.2	81	59.2	0	5	112	0.00	30.034 
01:05	65.2	65.2	65.2	81	59.2	1	3	90	0.00	30.034 
01:10	65.2	65.2	65.2	81	59.2	0	2	90	0.00	30.034 
01:15	65.0	65.0	65.0	82	59.4	1	4	90	0.00	30.024 
01:20	65.0	65.0	65.0	82	59.4	0	2	135	0.00	30.024 
01:25	65.0	65.0	65.0	82	59.4	1	3	68	0.00	30.024 
01:30	65.0	65.0	65.0	82	59.4	0	2	135	0.00	30.021 
01:35	64.8	64.8	64.8	82	59.2	0	2	135	0.00	30.021 
01:40	64.8	64.8	64.8	82	59.2	0	2	135	0.00	30.021 
01:45	64.8	64.8	64.8	83	59.5	0	1	158	0.00	30.018 
01:50	64.8	64.8	64.8	83	59.5	1	4	112	0.00	30.018 
01:55	64.8	64.8	64.8	84	59.8	0	2	135	0.00	30.018 
02:00	64.8	64.8	64.8	84	59.8	0	3	112	0.00	30.010 
02:05	64.7	64.7	64.7	85	60.1	1	4	112	0.00	30.010 
02:10	64.7	64.7	64.7	86	60.4	0	2	112	0.00	30.010 
02:15	64.5	64.5	64.5	86	60.2	1	4	112	0.00	30.003 
02:20	64.3	64.3	64.3	87	60.3	0	1	112	0.00	30.003 
02:25	64.3	64.3	64.3	87	60.3	0	2	112	0.00	30.003 
02:30	64.3	64.3	64.3	87	60.3	0	2	112	0.00	30.000 
02:35	64.2	64.2	64.2	87	60.2	0	4	112	0.00	30.000 
02:40	64.2	64.2	64.2	87	60.2	0	2	112	0.00	30.000 
02:45	64.2	64.2	64.2	87	60.2	0	1	112	0.00	29.995 
02:50	64.2	64.2	64.2	88	60.6	0	2	112	0.00	29.995 
02:55	64.0	64.0	64.0	88	60.4	0	1	112	0.00	29.995 
03:00	64.0	64.0	64.0	88	60.4	0	2	112	0.00	29.990 
03:05	64.0	64.0	64.0	88	60.4	0	3	112	0.00	29.990 
03:10	64.0	64.0	64.0	88	60.4	0	2	112	0.00	29.990 
03:15	63.9	63.9	63.9	88	60.3	0	2	112	0.00	29.986 
03:20	63.9	63.9	63.9	88	60.3	0	1	112	0.00	29.986 
03:25	63.9	63.9	63.9	89	60.6	1	3	90	0.00	29.986 
03:30	63.9	63.9	63.9	89	60.6	0	2	68	0.00	29.981 
03:35	63.9	63.9	63.9	89	60.6	0	2	68	0.00	29.981 
03:40	63.9	63.9	63.9	89	60.6	1	4	112	0.00	29.981 
03:45	63.9	63.9	63.9	89	60.6	0	2	112	0.00	29.976 
03:50	63.7	63.7	63.7	89	60.4	1	4	90	0.00	29.976 
03:55	63.7	63.7	63.7	90	60.7	0	3	90	0.00	29.976 
04:00	63.7	63.7	63.7	90	60.7	0	1	112	0.00	29.971 
04:05	63.7	63.7	63.7	90	60.7	0	1	112	0.00	29.971 
04:10	63.7	63.7	63.7	90	60.7	0	3	112	0.00	29.971 
04:15	63.5	63.5	63.5	91	60.8	0	2	135	0.00	29.966 
04:20	63.5	63.5	63.5	91	60.8	0	2	135	0.00	29.966 
04:25	63.5	63.5	63.5	91	60.8	0	1	135	0.00	29.966 
04:30	63.5	63.5	63.5	91	60.8	0	3	135	0.00	29.965 
04:35	63.4	63.4	63.4	91	60.7	0	0	---	0.00	29.965 
04:40	63.4	63.4	63.4	91	60.7	0	3	135	0.01	29.965 
04:45	63.4	63.4	63.4	92	61.0	0	3	68	0.04	29.966 
04:50	63.4	63.4	63.4	92	61.0	0	3	68	0.02	29.966 
04:55	63.4	63.4	63.4	92	61.0	1	3	68	0.01	29.966 
05:00	63.2	63.2	63.2	92	60.8	0	3	68	0.00	29.967 
05:05	63.2	63.2	63.2	93	61.1	1	4	90	0.00	29.967 
05:10	63.2	63.2	63.2	93	61.1	0	2	90	0.00	29.967 
05:15	63.2	63.2	63.2	93	61.1	0	2	90	0.00	29.964 
05:20	63.2	63.2	63.2	93	61.1	0	3	90	0.00	29.964 
05:25	63.2	63.2	63.2	94	61.4	0	3	90	0.01	29.964 
05:30	63.2	63.2	63.2	94	61.4	0	4	90	0.00	29.956 
05:35	63.2	63.2	63.2	94	61.4	0	2	90	0.00	29.956 
05:40	63.2	63.2	63.2	94	61.4	0	3	90	0.00	29.956 
05:45	63.2	63.2	63.2	94	61.4	0	1	90	0.00	29.953 
05:50	63.2	63.2	63.2	94	61.4	0	2	90	0.00	29.953 
05:55	63.2	63.2	63.2	94	61.4	0	2	90	0.00	29.953 
06:00	63.2	63.2	63.2	94	61.4	0	1	90	0.00	29.955 
06:05	63.2	63.2	63.2	94	61.4	0	1	90	0.00	29.955 
06:10	63.2	63.2	63.2	94	61.4	0	1	90	0.00	29.955 
06:15	63.2	63.2	63.2	95	61.7	0	1	90	0.00	29.954 
06:20	63.4	63.4	63.4	95	61.9	1	3	112	0.00	29.954 
06:25	63.4	63.4	63.4	95	61.9	0	1	112	0.00	29.954 
06:30	63.4	63.4	63.4	95	61.9	0	2	112	0.00	29.953 
06:35	63.4	63.4	63.4	95	61.9	0	1	225	0.00	29.953 
06:40	63.4	63.4	63.4	95	61.9	0	1	225	0.00	29.953 
06:45	63.4	63.4	63.4	95	61.9	0	1	225	0.00	29.949 
06:50	63.4	63.4	63.4	95	61.9	0	2	158	0.00	29.949 
06:55	63.5	63.5	63.5	95	62.0	0	3	90	0.00	29.949 
07:00	63.5	63.5	63.5	95	62.0	0	1	90	0.00	29.945 
07:05	63.5	63.5	63.5	95	62.0	0	2	90	0.00	29.945 
07:10	63.5	63.5	63.5	95	62.0	1	4	90	0.00	29.945 
07:15	63.5	63.5	63.5	95	62.0	1	4	112	0.00	29.945 
07:20	63.5	63.5	63.5	95	62.0	1	3	90	0.00	29.945 
07:25	63.5	63.5	63.5	95	62.0	1	6	68	0.00	29.945 
07:30	63.7	63.7	63.7	95	62.2	0	3	68	0.00	29.945 
07:35	63.7	63.7	63.7	95	62.2	0	2	270	0.00	29.945 
07:40	63.7	63.7	63.7	95	62.2	0	1	270	0.00	29.945 
07:45	63.7	63.7	63.7	95	62.2	0	1	270	0.00	29.943 
07:50	63.7	63.7	63.7	95	62.2	0	3	45	0.00	29.943 
07:55	63.7	63.7	63.7	95	62.2	0	2	45	0.00	29.943 
08:00	63.7	63.7	63.7	95	62.2	0	3	45	0.00	29.941 
08:05	63.7	63.7	63.7	95	62.2	0	3	225	0.00	29.941 
08:10	63.9	63.9	63.9	95	62.4	0	4	180	0.00	29.941 
08:15	63.9	63.9	63.9	95	62.4	0	3	270	0.00	29.941 
08:20	63.9	63.9	63.9	95	62.4	0	2	90	0.00	29.941 
08:25	64.0	64.0	64.0	95	62.5	0	1	90	0.00	29.941 
08:30	64.0	64.0	64.0	95	62.5	0	2	90	0.00	29.935 
08:35	64.0	64.0	64.0	95	62.5	0	3	315	0.00	29.935 
08:40	64.0	64.0	64.0	95	62.5	0	2	225	0.00	29.935 
08:45	64.2	64.2	64.2	95	62.7	0	2	225	0.00	29.940 
08:50	64.2	64.2	64.2	95	62.7	0	2	225	0.00	29.940 
08:55	64.2	64.2	64.2	95	62.7	1	3	270	0.01	29.940 
09:00	64.2	64.2	64.2	95	62.7	0	2	270	0.00	29.944 
09:05	64.3	64.3	64.3	95	62.8	0	3	248	0.00	29.944 
09:10	64.3	64.3	64.3	95	62.8	1	4	248	0.00	29.944 
09:15	64.3	64.3	64.3	95	62.8	1	4	248	0.00	29.939 
09:20	64.5	64.5	64.5	95	63.0	0	6	270	0.00	29.939 
09:25	64.5	64.5	64.5	95	63.0	0	4	270	0.00	29.939 
09:30	64.5	64.5	64.5	95	63.0	0	1	270	0.00	29.940 
09:35	64.5	64.5	64.5	95	63.0	0	3	270	0.00	29.940 
09:40	64.5	64.5	64.5	95	63.0	0	2	270	0.00	29.940 
09:45	64.7	64.7	64.7	95	63.2	0	1	270	0.00	29.941 
09:50	64.7	64.7	64.7	95	63.2	0	2	270	0.00	29.941 
09:55	64.7	64.7	64.7	95	63.2	0	2	270	0.00	29.941 
10:00	64.8	64.8	64.8	95	63.3	0	2	270	0.00	29.944 
10:05	65.0	65.0	65.0	95	63.5	0	1	270	0.00	29.944 
10:10	65.2	65.2	65.2	95	63.7	0	3	112	0.00	29.944 
10:15	65.3	65.3	65.3	95	63.8	0	2	112	0.00	29.945 
10:20	65.3	65.3	65.3	95	63.8	1	5	68	0.00	29.945 
10:25	65.3	65.3	65.3	95	63.8	1	3	225	0.00	29.945 
10:30	65.5	65.5	65.5	95	64.0	1	3	225	0.00	29.946 
10:35	65.5	65.5	65.5	95	64.0	0	3	248	0.00	29.946 
10:40	65.6	65.6	65.6	95	64.1	0	2	248	0.01	29.946 
10:45	65.8	65.8	65.8	95	64.3	0	3	248	0.00	29.944 
10:50	66.0	66.0	66.0	95	64.5	1	3	248	0.00	29.944 
10:55	66.0	66.0	66.0	95	64.5	1	3	225	0.00	29.944 
11:00	66.1	66.1	66.1	95	64.6	0	2	225	0.00	29.943 
11:05	66.3	66.3	66.3	95	64.8	0	3	225	0.00	29.943 
11:10	66.4	66.4	66.4	95	64.9	0	2	270	0.00	29.943 
11:15	66.4	66.4	66.4	95	64.9	0	3	225	0.00	29.942 
11:20	66.4	66.4	66.4	95	64.9	0	3	225	0.00	29.942 
11:25	66.4	66.4	66.4	94	64.6	0	3	225	0.00	29.942 
11:30	66.4	66.4	66.4	94	64.6	0	3	225	0.00	29.941 
11:35	66.6	66.6	66.6	94	64.8	0	1	225	0.00	29.941 
11:40	66.4	66.4	66.4	94	64.6	1	3	225	0.00	29.941 
11:45	66.4	66.4	66.4	94	64.6	0	2	225	0.00	29.941 
11:50	66.4	66.4	66.4	94	64.6	0	2	225	0.00	29.941 
11:55	66.4	66.4	66.4	94	64.6	0	2	225	0.00	29.941 
12:00	66.6	66.6	66.6	94	64.8	0	2	225	0.00	29.937 
12:05	66.6	66.6	66.6	94	64.8	0	1	225	0.00	29.937 
12:10	66.8	66.8	66.8	94	65.0	0	1	225	0.00	29.937 
12:15	66.8	66.8	66.8	94	65.0	0	1	225	0.00	29.930 
12:20	66.8	66.8	66.8	94	65.0	0	2	225	0.00	29.930 
12:25	66.9	66.9	66.9	94	65.1	0	2	225	0.00	29.930 
12:30	66.9	66.9	66.9	94	65.1	0	2	225	0.00	29.928 
12:35	66.9	66.9	66.9	94	65.1	0	3	68	0.00	29.928 
12:40	66.8	66.8	66.8	94	65.0	0	1	68	0.00	29.928 
12:45	66.8	66.8	66.8	94	65.0	0	1	68	0.00	29.925 
12:50	66.8	66.8	66.8	94	65.0	0	3	225	0.00	29.925 
12:55	66.8	66.8	66.8	94	65.0	0	1	225	0.00	29.925 
13:00	66.6	66.6	66.6	94	64.8	0	2	225	0.00	29.919 
13:05	66.6	66.6	66.6	94	64.8	0	3	225	0.00	29.919 
13:10	66.6	66.6	66.6	94	64.8	0	3	270	0.00	29.919 
13:15	66.6	66.6	66.6	94	64.8	0	2	270	0.00	29.917 
13:20	66.8	66.8	66.8	94	65.0	0	2	270	0.00	29.917 
13:25	66.9	66.9	66.9	94	65.1	0	1	270	0.00	29.917 
13:30	66.9	66.9	66.9	94	65.1	0	4	270	0.00	29.914 
13:35	66.9	66.9	66.9	94	65.1	0	2	248	0.00	29.914 
13:40	67.1	67.1	67.1	94	65.3	0	1	248	0.01	29.914 
13:45	67.1	67.1	67.1	94	65.3	0	1	248	0.00	29.912 
13:50	66.9	66.9	66.9	93	64.8	0	1	248	0.01	29.912 
13:55	66.9	66.9	66.9	93	64.8	0	1	248	0.01	29.912 
14:00	66.9	66.9	66.9	94	65.1	0	1	248	0.01	29.903 
14:05	66.9	66.9	66.9	94	65.1	0	1	248	0.00	29.903 
14:10	66.9	66.9	66.9	94	65.1	0	2	248	0.01	29.903 
14:15	66.9	66.9	66.9	94	65.1	0	1	248	0.00	29.898 
14:20	66.9	66.9	66.9	94	65.1	0	2	248	0.00	29.898 
14:25	66.9	66.9	66.9	94	65.1	0	3	248	0.01	29.898 
14:30	66.9	66.9	66.9	94	65.1	0	1	248	0.00	29.901 
14:35	66.9	66.9	66.9	94	65.1	0	1	248	0.00	29.901 
14:40	66.8	66.8	66.8	94	65.0	0	1	248	0.00	29.901 
14:45	66.8	66.8	66.8	94	65.0	0	0	---	0.00	29.898 
14:50	66.8	66.8	66.8	94	65.0	0	0	---	0.03	29.898 
14:55	66.6	66.6	66.6	94	64.8	0	1	248	0.03	29.898 
15:00	66.4	66.4	66.4	94	64.6	0	1	248	0.02	29.897 
15:05	66.4	66.4	66.4	94	64.6	0	0	---	0.06	29.897 
15:10	66.3	66.3	66.3	94	64.5	0	1	248	0.11	29.897 
15:15	66.3	66.3	66.3	95	64.8	0	1	248	0.17	29.906 
15:20	66.3	66.3	66.3	95	64.8	0	2	248	0.13	29.906 
15:25	66.1	66.1	66.1	95	64.6	0	1	248	0.01	29.906 
15:30	66.1	66.1	66.1	95	64.6	0	2	248	0.00	29.889 
15:35	66.3	66.3	66.3	95	64.8	0	0	---	0.00	29.889 
15:40	66.3	66.3	66.3	95	64.8	0	0	---	0.00	29.889 
15:45	66.4	66.4	66.4	95	64.9	0	1	248	0.00	29.892 
15:50	66.4	66.4	66.4	95	64.9	0	1	248	0.00	29.892 
15:55	66.4	66.4	66.4	95	64.9	0	2	248	0.00	29.892 
16:00	66.4	66.4	66.4	95	64.9	1	3	248	0.00	29.889 
16:05	66.4	66.4	66.4	95	64.9	0	2	248	0.00	29.889 
16:10	66.6	66.6	66.6	95	65.1	0	2	248	0.00	29.889 
16:15	66.6	66.6	66.6	95	65.1	0	2	248	0.00	29.889 
16:20	66.6	66.6	66.6	95	65.1	1	3	248	0.00	29.889 
16:25	66.6	66.6	66.6	95	65.1	0	1	248	0.00	29.889 
16:30	66.6	66.6	66.6	95	65.1	0	1	248	0.00	29.889 
16:35	66.6	66.6	66.6	95	65.1	0	1	248	0.00	29.889 
16:40	66.4	66.4	66.4	95	64.9	0	3	248	0.00	29.889 
16:45	66.4	66.4	66.4	95	64.9	0	3	248	0.00	29.895 
16:50	66.4	66.4	66.4	95	64.9	0	3	248	0.00	29.895 
16:55	66.1	66.1	66.1	94	64.3	1	3	248	0.00	29.895 
17:00	65.5	65.5	65.5	94	63.7	1	4	248	0.00	29.901 
17:05	65.2	65.2	65.2	94	63.4	2	5	292	0.00	29.901 
17:10	65.2	65.2	65.2	93	63.1	1	3	292	0.00	29.901 
17:15	65.6	65.6	65.6	94	63.8	0	2	292	0.00	29.902 
17:20	66.1	66.1	66.1	93	64.0	0	3	292	0.00	29.902 
17:25	66.4	66.4	66.4	93	64.3	1	4	292	0.00	29.902 
17:30	66.8	66.8	66.8	92	64.4	1	3	292	0.00	29.902 
17:35	66.9	66.9	66.9	91	64.2	1	5	292	0.00	29.902 
17:40	67.3	67.3	67.3	90	64.3	0	2	292	0.00	29.902 
17:45	67.1	67.1	67.1	89	63.7	1	3	292	0.00	29.902 
17:50	67.1	67.1	67.1	88	63.4	1	3	292	0.00	29.902 
17:55	67.1	67.1	67.1	87	63.1	1	3	292	0.00	29.902 
18:00	67.4	67.4	67.4	87	63.4	1	3	292	0.00	29.906 
18:05	67.6	67.6	67.6	86	63.3	0	2	292	0.00	29.906 
18:10	67.4	67.4	67.4	85	62.7	0	1	292	0.00	29.906 
18:15	67.4	67.4	67.4	85	62.7	0	1	292	0.00	29.909 
18:20	67.6	67.6	67.6	85	62.9	0	1	292	0.00	29.909 
18:25	67.4	67.4	67.4	84	62.4	1	4	292	0.00	29.909 
18:30	67.3	67.3	67.3	82	61.6	1	4	270	0.00	29.913 
18:35	67.1	67.1	67.1	83	61.8	1	4	270	0.00	29.913 
18:40	66.9	66.9	66.9	83	61.6	1	3	270	0.00	29.913 
18:45	66.9	66.9	66.9	83	61.6	0	3	270	0.00	29.918 
18:50	66.9	66.9	66.9	83	61.6	1	3	270	0.00	29.918 
18:55	66.9	66.9	66.9	84	61.9	0	1	270	0.00	29.918 
19:00	66.8	66.8	66.8	84	61.8	0	0	---	0.00	29.927 
19:05	66.6	66.6	66.6	84	61.6	0	1	270	0.00	29.927 
19:10	66.4	66.4	66.4	84	61.4	0	2	270	0.00	29.927 
19:15	66.3	66.3	66.3	84	61.3	0	1	270	0.00	29.930 
19:20	66.3	66.3	66.3	84	61.3	0	1	270	0.00	29.930 
19:25	66.0	66.0	66.0	83	60.7	0	1	270	0.00	29.930 
19:30	65.8	65.8	65.8	83	60.5	0	2	270	0.00	29.935 
19:35	65.8	65.8	65.8	82	60.1	1	3	270	0.00	29.935 
19:40	65.6	65.6	65.6	82	59.9	1	2	270	0.00	29.935 
19:45	65.6	65.6	65.6	82	59.9	0	1	270	0.00	29.945 
19:50	65.5	65.5	65.5	82	59.9	1	3	270	0.00	29.945 
19:55	65.5	65.5	65.5	82	59.9	1	4	270	0.00	29.945 
20:00	65.3	65.3	65.3	82	59.7	1	3	270	0.00	29.950 
20:05	65.3	65.3	65.3	82	59.7	1	4	270	0.00	29.950 
20:10	65.2	65.2	65.2	83	59.9	1	3	315	0.00	29.950 
20:15	65.0	65.0	65.0	83	59.7	0	2	315	0.00	29.953 
20:20	65.0	65.0	65.0	84	60.0	0	1	315	0.00	29.953 
20:25	64.8	64.8	64.8	84	59.8	0	1	315	0.00	29.953 
20:30	64.7	64.7	64.7	84	59.7	0	1	315	0.00	29.963 
20:35	64.7	64.7	64.7	84	59.7	0	0	---	0.00	29.963 
20:40	64.5	64.5	64.5	85	59.9	0	2	315	0.00	29.963 
20:45	64.5	64.5	64.5	85	59.9	0	1	315	0.00	29.967 
20:50	64.3	64.3	64.3	85	59.7	0	1	315	0.00	29.967 
20:55	64.2	64.2	64.2	85	59.6	0	3	292	0.00	29.967 
21:00	64.2	64.2	64.2	85	59.6	0	0	---	0.00	29.976 
21:05	64.0	64.0	64.0	86	59.7	0	1	292	0.00	29.976 
21:10	63.9	63.9	63.9	86	59.6	0	1	292	0.00	29.976 
21:15	63.7	63.7	63.7	86	59.4	0	2	292	0.00	29.983 
21:20	63.7	63.7	63.7	86	59.4	0	1	292	0.00	29.983 
21:25	63.7	63.7	63.7	86	59.4	0	2	292	0.00	29.983 
21:30	63.5	63.5	63.5	86	59.2	0	1	292	0.00	29.989 
21:35	63.5	63.5	63.5	85	58.9	1	3	292	0.00	29.989 
21:40	63.5	63.5	63.5	86	59.2	0	4	292	0.00	29.989 
21:45	63.4	63.4	63.4	86	59.1	0	2	292	0.00	29.993 
21:50	63.4	63.4	63.4	86	59.1	0	1	292	0.00	29.993 
21:55	63.4	63.4	63.4	86	59.1	0	1	292	0.00	29.993 
22:00	63.2	63.2	63.2	86	58.9	0	1	292	0.00	29.995 
22:05	63.2	63.2	63.2	87	59.3	0	2	292	0.00	29.995 
22:10	63.1	63.1	63.1	87	59.2	0	2	292	0.00	29.995 
22:15	63.1	63.1	63.1	87	59.2	0	1	292	0.00	29.996 
22:20	62.9	62.9	62.9	87	59.0	0	2	292	0.00	29.996 
22:25	62.9	62.9	62.9	87	59.0	0	1	292	0.00	29.996 
22:30	62.7	62.7	62.7	87	58.8	0	0	---	0.00	30.002 
22:35	62.7	62.7	62.7	87	58.8	0	1	292	0.00	30.002 
22:40	62.7	62.7	62.7	87	58.8	0	1	292	0.00	30.002 
22:45	62.6	62.6	62.6	88	59.0	0	1	292	0.00	30.008 
22:50	62.6	62.6	62.6	88	59.0	0	1	292	0.00	30.008 
22:55	62.4	62.4	62.4	88	58.8	0	2	292	0.00	30.008 
23:00	62.3	62.3	62.3	88	58.7	0	3	292	0.00	30.012 
23:05	62.3	62.3	62.3	88	58.7	0	1	292	0.00	30.012 
23:10	62.3	62.3	62.3	88	58.7	0	3	292	0.00	30.012 
23:15	62.3	62.3	62.3	88	58.7	0	1	292	0.00	30.013 
23:20	62.1	62.1	62.1	88	58.5	0	3	292	0.00	30.013 
23:25	62.1	62.1	62.1	87	58.2	0	3	292	0.00	30.013 
23:30	62.1	62.1	62.1	87	58.2	0	1	292	0.00	30.014 
23:35	62.1	62.1	62.1	87	58.2	0	1	292	0.00	30.014 
23:40	62.0	62.0	62.0	87	58.1	0	1	292	0.00	30.014 
23:45	62.0	62.0	62.0	87	58.1	0	1	292	0.00	30.012 
23:50	62.0	62.0	62.0	87	58.1	0	0	---	0.00	30.012 
23:55	62.0	62.0	62.0	87	58.1	0	0	---	0.00	30.012 

CoCoRaHS
IN-AL-39
A2 Web Hosting
Creative Commons License
GoDaddy
search engine by freefind advanced

loaded 2018-11-16 00:05:05 • last modified 2010-11-18 10:43:29
Privacy PolicyDisclaimer
• wx.awcolley.com is powered by PmWiki v.2002016 •
• all content (unless otherwise noted) © 2018 A W Colley